createdAt,value
2018-06-04T00:01:11.940Z,28.20
2018-06-04T00:03:40.406Z,29.73
2018-06-04T00:06:08.465Z,28.97
2018-06-04T00:08:36.441Z,30.20
2018-06-04T00:11:04.524Z,29.83
2018-06-04T00:13:33.200Z,28.93
2018-06-04T00:16:01.388Z,30.77
2018-06-04T00:18:29.481Z,28.73
2018-06-04T00:20:57.374Z,28.47
2018-06-04T00:23:25.360Z,27.37
2018-06-04T00:25:53.321Z,28.60
2018-06-04T00:28:21.330Z,27.60
2018-06-04T00:30:49.816Z,28.93
2018-06-04T00:33:18.647Z,28.63
2018-06-04T00:35:47.444Z,28.27
2018-06-04T00:38:15.432Z,28.83
2018-06-04T00:40:44.634Z,30.27
2018-06-04T00:43:12.901Z,28.10
2018-06-04T00:45:40.870Z,27.80
2018-06-04T00:48:09.002Z,27.63
2018-06-04T00:50:37.168Z,28.20
2018-06-04T00:53:05.224Z,29.07
2018-06-04T00:55:38.092Z,29.10
2018-06-04T00:58:06.152Z,29.67
2018-06-04T01:00:34.168Z,29.13
2018-06-04T01:03:02.202Z,30.17
2018-06-04T01:05:30.204Z,28.37
2018-06-04T01:07:58.216Z,29.47
2018-06-04T01:10:26.633Z,29.67
2018-06-04T01:12:54.593Z,30.30
2018-06-04T01:15:22.664Z,29.33
2018-06-04T01:17:50.644Z,29.60
2018-06-04T01:20:18.637Z,29.00
2018-06-04T01:22:46.689Z,30.17
2018-06-04T01:25:14.712Z,30.97
2018-06-04T01:27:42.644Z,30.63
2018-06-04T01:30:10.572Z,29.10
2018-06-04T01:32:38.544Z,31.17
2018-06-04T01:35:07.672Z,30.47
2018-06-04T01:37:35.548Z,30.43
2018-06-04T01:40:03.484Z,29.93
2018-06-04T01:42:31.557Z,30.50
2018-06-04T01:44:59.582Z,29.70
2018-06-04T01:47:27.617Z,29.43
2018-06-04T01:49:55.932Z,29.97
2018-06-04T01:52:24.740Z,30.60
2018-06-04T01:54:52.833Z,31.00
2018-06-04T01:57:20.868Z,31.53
2018-06-04T01:59:49.977Z,31.33
2018-06-04T02:02:17.920Z,30.67
2018-06-04T02:04:45.934Z,32.27
2018-06-04T02:07:13.955Z,31.80
2018-06-04T02:09:42.200Z,32.23
2018-06-04T02:12:10.233Z,31.17
2018-06-04T02:14:38.356Z,31.53
2018-06-04T02:17:07.941Z,31.23
2018-06-04T02:19:36.611Z,32.13
2018-06-04T02:22:04.600Z,31.10
2018-06-04T02:24:32.569Z,31.93
2018-06-04T02:27:01.277Z,32.43
2018-06-04T02:29:30.219Z,32.40
2018-06-04T02:31:58.277Z,31.63
2018-06-04T02:34:27.072Z,32.63
2018-06-04T02:36:54.973Z,32.73
2018-06-04T02:39:22.999Z,33.47
2018-06-04T02:41:51.386Z,31.50
2018-06-04T02:44:19.353Z,33.10
2018-06-04T02:46:47.407Z,31.33
2018-06-04T02:49:15.297Z,31.40
2018-06-04T02:51:43.265Z,30.27
2018-06-04T02:54:11.302Z,31.70
2018-06-04T02:56:39.387Z,32.13
2018-06-04T02:59:07.427Z,31.20
2018-06-04T03:01:35.389Z,30.53
2018-06-04T03:04:04.007Z,30.43
2018-06-04T03:06:32.038Z,31.00
2018-06-04T03:09:00.160Z,30.50
2018-06-04T03:11:28.143Z,30.53
2018-06-04T03:13:57.176Z,31.40
2018-06-04T03:16:25.169Z,28.97
2018-06-04T03:18:53.347Z,29.87
2018-06-04T03:21:21.313Z,28.87
2018-06-04T03:23:49.321Z,29.13
2018-06-04T03:26:17.221Z,28.77
2018-06-04T03:28:45.657Z,30.00
2018-06-04T03:31:13.714Z,29.13
2018-06-04T03:33:41.692Z,28.83
2018-06-04T03:36:09.638Z,28.73
2018-06-04T03:38:37.622Z,28.43
2018-06-04T03:41:05.604Z,26.73
2018-06-04T03:43:33.640Z,25.37
2018-06-04T03:46:01.669Z,25.40
2018-06-04T03:48:29.688Z,25.17
2018-06-04T03:50:57.695Z,24.90
2018-06-04T03:53:25.640Z,23.07
2018-06-04T03:55:53.947Z,22.57
2018-06-04T03:58:22.571Z,22.67
2018-06-04T04:00:51.192Z,23.20
2018-06-04T04:03:19.573Z,23.13
2018-06-04T04:05:48.350Z,22.33
2018-06-04T04:08:16.230Z,21.67
2018-06-04T04:10:44.248Z,24.00
2018-06-04T04:13:12.192Z,22.37
2018-06-04T04:15:40.074Z,21.10
2018-06-04T04:18:08.163Z,22.27
2018-06-04T04:20:36.042Z,22.25
2018-06-04T04:23:04.166Z,21.27
2018-06-04T04:25:32.153Z,20.32
2018-06-04T04:28:00.375Z,21.37
2018-06-04T04:30:28.431Z,20.90
2018-06-04T04:32:57.118Z,20.52
2018-06-04T04:35:26.066Z,19.82
2018-06-04T04:37:54.126Z,20.15
2018-06-04T04:40:22.104Z,20.50
2018-06-04T04:42:50.182Z,20.77
2018-06-04T04:45:18.921Z,19.60
2018-06-04T04:47:46.956Z,20.20
2018-06-04T04:50:14.992Z,19.52
2018-06-04T04:52:43.052Z,20.00
2018-06-04T04:55:11.824Z,20.68
2018-06-04T04:57:39.777Z,19.65
2018-06-04T05:00:09.740Z,18.82
2018-06-04T05:02:37.853Z,18.90
2018-06-04T05:05:06.844Z,19.48
2018-06-04T05:07:34.800Z,20.48
2018-06-04T05:10:03.011Z,19.80
2018-06-04T05:12:30.983Z,20.23
2018-06-04T05:14:59.053Z,20.60
2018-06-04T05:17:27.169Z,21.50
2018-06-04T05:19:55.169Z,21.05
2018-06-04T05:22:23.853Z,21.40
2018-06-04T05:24:51.864Z,20.37
2018-06-04T05:27:20.483Z,21.68
2018-06-04T05:29:49.017Z,21.12
2018-06-04T05:32:17.943Z,21.10
2018-06-04T05:34:46.079Z,21.15
2018-06-04T05:37:14.260Z,21.42
2018-06-04T05:39:43.349Z,21.45
2018-06-04T05:42:23.784Z,21.30
2018-06-04T05:44:51.971Z,20.52
2018-06-04T05:47:19.893Z,21.45
2018-06-04T05:49:48.902Z,20.05
2018-06-04T05:52:19.088Z,20.57
2018-06-04T05:54:58.835Z,21.02
2018-06-04T05:57:27.225Z,21.20
2018-06-04T05:59:55.581Z,20.90
2018-06-04T06:02:23.639Z,20.70
2018-06-04T06:04:52.140Z,19.25
2018-06-04T06:07:20.924Z,19.05
2018-06-04T06:09:49.095Z,19.95
2018-06-04T06:15:59.216Z,20.97
2018-06-04T06:18:27.440Z,19.60
2018-06-04T06:20:55.558Z,20.30
2018-06-04T06:23:24.228Z,19.23
2018-06-04T06:25:52.487Z,20.30
2018-06-04T06:28:21.562Z,20.60
2018-06-04T06:30:50.056Z,19.35
2018-06-04T06:33:18.144Z,20.12
2018-06-04T06:48:46.869Z,19.65
2018-06-04T06:51:15.048Z,16.93
2018-06-04T06:53:43.128Z,20.95
2018-06-04T06:56:11.975Z,20.55
2018-06-04T06:58:40.028Z,20.85
2018-06-04T07:01:08.733Z,17.45
2018-06-04T07:03:38.985Z,19.25
2018-06-04T07:06:08.596Z,19.27
2018-06-04T07:08:37.156Z,18.70
2018-06-04T07:24:05.485Z,18.70
2018-06-04T07:26:33.441Z,16.97
2018-06-04T07:29:04.284Z,18.02
2018-06-04T07:31:32.730Z,18.05
2018-06-04T07:34:01.297Z,16.42
2018-06-04T07:36:29.277Z,15.70
2018-06-04T07:38:57.401Z,15.80
2018-06-04T07:41:26.042Z,17.10
2018-06-04T07:43:54.228Z,16.02
2018-06-04T07:46:23.669Z,16.57
2018-06-04T07:48:52.341Z,16.35
2018-06-04T07:51:21.066Z,14.03
2018-06-04T08:06:49.832Z,17.27
2018-06-04T08:09:18.944Z,14.00
2018-06-04T08:11:49.450Z,14.60
2018-06-04T08:14:17.904Z,13.45
2018-06-04T08:16:46.032Z,12.53
2018-06-04T08:19:14.711Z,13.53
2018-06-04T08:21:44.694Z,12.47
2018-06-04T08:24:13.345Z,12.63
2018-06-04T08:39:42.352Z,11.30
2018-06-04T08:42:10.772Z,11.18
2018-06-04T08:44:38.784Z,10.98
2018-06-04T08:47:08.395Z,11.30
2018-06-04T08:49:36.531Z,12.80
2018-06-04T08:52:06.285Z,12.47
2018-06-04T08:54:35.235Z,11.18
2018-06-04T08:57:21.273Z,11.08
2018-06-04T08:59:50.063Z,10.93
2018-06-04T09:02:18.209Z,10.43
2018-06-04T09:04:46.478Z,10.80
2018-06-04T09:07:15.713Z,12.10
2018-06-04T09:09:48.138Z,11.40
2018-06-04T09:12:19.232Z,11.28
2018-06-04T09:14:48.193Z,10.53
2018-06-04T09:17:19.802Z,10.98
2018-06-04T09:19:52.268Z,11.88
2018-06-04T09:22:21.528Z,10.85
2018-06-04T09:24:51.013Z,12.80
2018-06-04T09:27:19.726Z,10.95
2018-06-04T09:29:48.221Z,10.68
2018-06-04T09:32:19.541Z,10.90
2018-06-04T09:34:47.941Z,10.23
2018-06-04T09:37:16.472Z,10.48
2018-06-04T09:39:44.505Z,10.43
2018-06-04T09:42:12.608Z,11.25
2018-06-04T09:44:41.577Z,10.40
2018-06-04T10:00:11.562Z,10.43
2018-06-04T10:02:40.508Z,9.18
2018-06-04T10:05:08.947Z,9.53
2018-06-04T10:07:37.712Z,8.78
2018-06-04T10:10:05.871Z,8.40
2018-06-04T10:12:35.413Z,8.83
2018-06-04T10:15:03.949Z,9.33
2018-06-04T10:33:50.515Z,8.33
2018-06-04T10:36:22.435Z,8.55
2018-06-04T10:39:02.539Z,7.85
2018-06-04T10:41:31.501Z,8.23
2018-06-04T10:43:59.674Z,7.92
2018-06-04T10:46:28.495Z,8.30
2018-06-04T10:48:57.433Z,7.67
2018-06-04T10:51:26.407Z,7.92
2018-06-04T10:53:55.442Z,7.95
2018-06-04T10:56:27.422Z,7.55
2018-06-04T10:58:56.425Z,7.97
2018-06-04T11:01:24.628Z,8.23
2018-06-04T11:03:55.287Z,7.53
2018-06-04T11:06:23.452Z,7.62
2018-06-04T11:08:52.756Z,8.18
2018-06-04T11:11:20.755Z,7.80
2018-06-04T11:13:49.088Z,7.75
2018-06-04T11:16:18.441Z,8.28
2018-06-04T11:18:48.109Z,7.65
2018-06-04T11:21:16.972Z,7.90
2018-06-04T11:23:45.807Z,7.30
2018-06-04T11:26:14.450Z,7.70
2018-06-04T11:28:44.882Z,8.08
2018-06-04T11:32:43.916Z,7.35
2018-06-04T11:35:14.076Z,8.38
2018-06-04T11:37:46.006Z,7.53
2018-06-04T11:40:15.254Z,8.95
2018-06-04T11:42:44.478Z,8.13
2018-06-04T11:45:12.616Z,7.60
2018-06-04T11:47:42.077Z,8.15
2018-06-04T11:50:11.031Z,7.37
2018-06-04T11:52:39.913Z,7.33
2018-06-04T11:55:08.855Z,8.05
2018-06-04T11:57:37.345Z,7.10
2018-06-04T12:00:06.167Z,7.28
2018-06-04T12:02:35.651Z,7.42
2018-06-04T12:05:03.923Z,7.10
2018-06-04T12:20:33.368Z,6.90
2018-06-04T12:23:03.950Z,8.05
2018-06-04T12:25:34.143Z,7.80
2018-06-04T12:28:04.224Z,7.62
2018-06-04T12:30:32.565Z,8.10
2018-06-04T12:33:01.066Z,7.60
2018-06-04T12:35:29.052Z,7.40
2018-06-04T12:37:58.999Z,6.92
2018-06-04T12:40:27.286Z,7.50
2018-06-04T12:42:57.099Z,7.00
2018-06-04T12:45:25.013Z,8.20
2018-06-04T12:47:54.125Z,7.60
2018-06-04T12:50:22.328Z,7.58
2018-06-04T12:52:50.955Z,7.33
2018-06-04T12:55:20.878Z,7.25
2018-06-04T12:57:49.672Z,7.47
2018-06-04T13:00:18.699Z,7.45
2018-06-04T13:02:47.490Z,8.38
2018-06-04T13:05:16.641Z,9.58
2018-06-04T13:07:44.668Z,7.62
2018-06-04T13:10:12.727Z,7.53
2018-06-04T13:12:41.699Z,7.45
2018-06-04T13:15:10.088Z,7.50
2018-06-04T13:17:38.574Z,7.60
2018-06-04T13:20:07.046Z,7.12
2018-06-04T13:22:34.972Z,7.60
2018-06-04T13:34:54.531Z,7.33
2018-06-04T13:37:23.040Z,7.47
2018-06-04T13:39:51.631Z,7.40
2018-06-04T13:42:20.311Z,6.87
2018-06-04T13:44:48.756Z,7.25
2018-06-04T13:47:17.389Z,7.33
2018-06-04T13:49:46.709Z,7.42
2018-06-04T13:52:14.664Z,7.85
2018-06-04T13:54:42.756Z,7.60
2018-06-04T13:57:11.416Z,7.85
2018-06-04T13:59:40.302Z,8.60
2018-06-04T14:02:08.485Z,8.20
2018-06-04T14:04:37.088Z,7.87
2018-06-04T14:07:05.750Z,7.05
2018-06-04T14:09:33.585Z,7.20
2018-06-04T14:12:02.109Z,7.30
2018-06-04T14:14:30.172Z,6.90
2018-06-04T14:16:58.081Z,6.85
2018-06-04T14:19:26.012Z,7.10
2018-06-04T14:21:53.900Z,7.17
2018-06-04T14:24:21.748Z,6.85
2018-06-04T14:26:49.611Z,7.42
2018-06-04T14:29:17.455Z,7.67
2018-06-04T14:31:45.168Z,6.92
2018-06-04T14:34:13.040Z,6.80
2018-06-04T14:36:40.980Z,6.42
2018-06-04T14:39:09.744Z,7.20
2018-06-04T14:41:37.801Z,7.10
2018-06-04T14:44:05.564Z,7.33
2018-06-04T14:46:33.429Z,7.60
2018-06-04T14:49:01.199Z,6.85
2018-06-04T14:51:29.064Z,7.12
2018-06-04T14:53:56.952Z,6.80
2018-06-04T14:56:24.975Z,7.17
2018-06-04T14:58:52.908Z,7.40
2018-06-04T15:01:20.763Z,7.00
2018-06-04T15:03:48.767Z,7.05
2018-06-04T15:06:16.686Z,7.58
2018-06-04T15:08:44.597Z,7.45
2018-06-04T15:11:13.677Z,7.10
2018-06-04T15:13:41.741Z,6.58
2018-06-04T15:16:10.272Z,7.00
2018-06-04T15:18:38.194Z,7.05
2018-06-04T15:21:06.600Z,7.60
2018-06-04T15:23:34.417Z,6.67
2018-06-04T15:26:02.920Z,7.12
2018-06-04T15:28:30.783Z,6.92
2018-06-04T15:30:58.643Z,7.00
2018-06-04T15:33:26.504Z,7.28
2018-06-04T15:35:54.452Z,6.80
2018-06-04T15:38:22.561Z,6.42
2018-06-04T15:40:51.180Z,6.10
2018-06-04T15:43:23.919Z,6.50
2018-06-04T15:45:51.801Z,6.03
2018-06-04T15:48:19.612Z,6.35
2018-06-04T15:50:48.184Z,6.28
2018-06-04T15:53:17.016Z,6.55
2018-06-04T15:55:44.892Z,7.20
2018-06-04T15:58:12.856Z,7.30
2018-06-04T16:00:40.692Z,6.90
2018-06-04T16:03:08.670Z,6.40
2018-06-04T16:05:36.460Z,6.95
2018-06-04T16:08:04.328Z,5.87
2018-06-04T16:10:32.256Z,6.72
2018-06-04T16:13:00.072Z,6.40
2018-06-04T16:15:27.939Z,6.53
2018-06-04T16:17:55.824Z,6.35
2018-06-04T16:20:23.740Z,6.78
2018-06-04T16:22:51.594Z,6.40
2018-06-04T16:25:19.507Z,6.75
2018-06-04T16:27:48.296Z,6.33
2018-06-04T16:30:16.940Z,6.12
2018-06-04T16:32:45.085Z,6.10
2018-06-04T16:35:12.942Z,6.75
2018-06-04T16:37:40.829Z,6.08
2018-06-04T16:40:08.706Z,6.58
2018-06-04T16:42:36.545Z,6.83
2018-06-04T16:45:04.531Z,6.50
2018-06-04T16:47:32.403Z,7.22
2018-06-04T16:50:00.180Z,6.87
2018-06-04T16:52:28.020Z,6.35
2018-06-04T16:54:55.928Z,7.17
2018-06-04T16:57:23.868Z,6.90
2018-06-04T16:59:51.824Z,7.22
2018-06-04T17:02:19.640Z,7.00
2018-06-04T17:04:47.466Z,6.50
2018-06-04T17:07:15.216Z,6.67
2018-06-04T17:09:43.092Z,7.83
2018-06-04T17:12:10.992Z,8.20
2018-06-04T17:14:38.924Z,7.35
2018-06-04T17:17:06.815Z,8.60
2018-06-04T17:19:34.716Z,8.40
2018-06-04T17:22:02.509Z,8.93
2018-06-04T17:24:30.352Z,8.55
2018-06-04T17:26:58.169Z,8.48
2018-06-04T17:29:26.144Z,8.98
2018-06-04T17:31:54.004Z,8.68
2018-06-04T17:34:22.057Z,8.78
2018-06-04T17:36:49.944Z,8.30
2018-06-04T17:39:17.806Z,9.88
2018-06-04T17:41:45.816Z,8.98
2018-06-04T17:44:13.700Z,9.20
2018-06-04T17:46:41.540Z,8.70
2018-06-04T17:49:09.444Z,8.83
2018-06-04T17:51:37.788Z,8.78
2018-06-04T17:54:05.744Z,9.00
2018-06-04T17:56:33.619Z,8.70
2018-06-04T17:59:01.556Z,9.15
2018-06-04T18:01:30.089Z,9.15
2018-06-04T18:03:57.976Z,9.20
2018-06-04T18:06:25.836Z,8.80
2018-06-04T18:08:53.690Z,9.73
2018-06-04T18:11:21.524Z,9.38
2018-06-04T18:13:49.425Z,9.70
2018-06-04T18:16:17.369Z,9.65
2018-06-04T18:18:45.277Z,10.25
2018-06-04T18:21:13.140Z,10.30
2018-06-04T18:23:40.969Z,10.48
2018-06-04T18:26:09.732Z,10.25
2018-06-04T18:28:38.220Z,10.32
2018-06-04T18:31:06.989Z,10.53
2018-06-04T18:33:34.929Z,10.05
2018-06-04T18:36:02.757Z,10.55
2018-06-04T18:38:30.655Z,10.48
2018-06-04T18:40:58.565Z,10.35
2018-06-04T18:43:26.855Z,10.15
2018-06-04T18:45:54.774Z,9.88
2018-06-04T18:48:22.749Z,10.53
2018-06-04T18:50:50.612Z,10.68
2018-06-04T18:53:18.713Z,11.08
2018-06-04T18:55:46.579Z,10.30
2018-06-04T18:58:14.420Z,11.75
2018-06-04T19:00:42.711Z,11.20
2018-06-04T19:03:10.646Z,10.40
2018-06-04T19:05:39.214Z,10.78
2018-06-04T19:08:09.556Z,10.25
2018-06-04T19:10:39.097Z,10.78
2018-06-04T19:13:10.826Z,11.38
2018-06-04T19:15:39.231Z,11.50
2018-06-04T19:18:08.324Z,11.22
2018-06-04T19:20:36.165Z,10.35
2018-06-04T19:23:05.053Z,10.10
2018-06-04T19:25:32.938Z,9.58
2018-06-04T19:28:01.888Z,10.70
2018-06-04T19:30:31.934Z,11.03
2018-06-04T19:33:00.050Z,11.00
2018-06-04T19:35:29.089Z,10.47
2018-06-04T19:37:59.038Z,10.77
2018-06-04T19:40:27.440Z,10.87
2018-06-04T19:42:55.288Z,9.70
2018-06-04T19:45:23.260Z,11.17
2018-06-04T19:47:52.519Z,9.30
2018-06-04T19:50:20.451Z,10.20
2018-06-04T19:52:48.409Z,10.43
2018-06-04T19:55:16.280Z,9.77
2018-06-04T20:10:44.816Z,10.87
2018-06-04T20:13:13.418Z,10.53
2018-06-04T20:15:44.437Z,10.57
2018-06-04T20:18:13.565Z,10.93
2018-06-04T20:20:41.629Z,10.87
2018-06-04T20:23:09.700Z,11.20
2018-06-04T20:25:39.563Z,11.10
2018-06-04T20:28:07.545Z,10.77
2018-06-04T20:30:36.101Z,10.50
2018-06-04T20:33:04.652Z,11.17
2018-06-04T20:35:34.120Z,10.93
2018-06-04T20:51:07.204Z,10.73
2018-06-04T20:53:35.068Z,11.37
2018-06-04T20:56:03.441Z,10.47
2018-06-04T20:58:31.565Z,10.60
2018-06-04T21:00:59.459Z,11.37
2018-06-04T21:03:29.955Z,11.50
2018-06-04T21:06:10.137Z,10.90
2018-06-04T21:08:39.570Z,11.63
2018-06-04T21:11:15.268Z,10.23
2018-06-04T21:13:44.929Z,11.70
2018-06-04T21:16:13.163Z,11.30
2018-06-04T21:18:40.876Z,10.43
2018-06-04T21:21:09.544Z,11.60
2018-06-04T21:23:37.428Z,10.83
2018-06-04T21:26:05.175Z,11.40
2018-06-04T21:28:32.959Z,11.10
2018-06-04T21:31:00.780Z,11.33
2018-06-04T21:33:29.422Z,12.50
2018-06-04T21:35:57.240Z,12.87
2018-06-04T21:38:25.456Z,13.60
2018-06-04T21:40:54.054Z,14.00
2018-06-04T21:43:21.712Z,15.93
2018-06-04T21:45:49.670Z,14.57
2018-06-04T21:48:17.552Z,38.77
2018-06-04T21:50:45.226Z,22.97
2018-06-04T21:53:13.773Z,17.70
2018-06-04T21:55:42.744Z,13.87
2018-06-04T21:58:10.646Z,14.23
2018-06-04T22:00:38.529Z,13.60
2018-06-04T22:03:06.486Z,12.87
2018-06-04T22:05:34.528Z,12.50
2018-06-04T22:08:02.264Z,11.60
2018-06-04T22:23:30.376Z,12.63
2018-06-04T22:25:58.245Z,12.60
2018-06-04T22:28:26.398Z,13.03
2018-06-04T22:30:54.289Z,14.20
2018-06-04T22:33:22.144Z,13.17
2018-06-04T22:35:50.109Z,13.83
2018-06-04T22:38:18.003Z,12.50
2018-06-04T22:40:45.812Z,12.50
2018-06-04T22:43:14.250Z,12.53
2018-06-04T22:45:42.105Z,13.77
2018-06-04T22:48:09.960Z,12.50
2018-06-04T22:50:37.860Z,12.43
2018-06-04T22:53:05.788Z,13.73
2018-06-04T22:55:33.595Z,13.90
2018-06-04T22:58:01.489Z,13.87
2018-06-04T23:00:32.397Z,13.67
2018-06-04T23:03:00.222Z,13.73
2018-06-04T23:05:28.111Z,14.20
2018-06-04T23:07:56.094Z,13.43
2018-06-04T23:10:23.852Z,13.27
2018-06-04T23:12:51.700Z,13.53
2018-06-04T23:15:19.581Z,14.33
2018-06-04T23:17:47.488Z,14.67
2018-06-04T23:20:15.304Z,14.57
2018-06-04T23:22:43.075Z,15.03
2018-06-04T23:25:11.696Z,14.50
2018-06-04T23:27:41.358Z,15.00
2018-06-04T23:30:09.724Z,13.90
2018-06-04T23:32:37.632Z,14.17
2018-06-04T23:35:05.541Z,15.00
2018-06-04T23:37:34.118Z,14.80
2018-06-04T23:40:01.772Z,14.63
2018-06-04T23:42:29.616Z,15.23
2018-06-04T23:44:57.380Z,15.00
2018-06-04T23:47:25.844Z,14.70
2018-06-04T23:49:53.848Z,16.23
2018-06-04T23:52:21.536Z,15.90
2018-06-04T23:54:49.272Z,15.87
2018-06-04T23:57:17.151Z,15.67
2018-06-04T23:59:45.004Z,16.40
